sensor_id;sensor_type;location;lat;lon;timestamp;P1;durP1;ratioP1;P2;durP2;ratioP2
27495;SDS011;14929;51.336;9.416;2022-09-27T00:01:56;0.50;;;0.50;;
27495;SDS011;14929;51.336;9.416;2022-09-27T00:04:24;0.90;;;0.90;;
27495;SDS011;14929;51.336;9.416;2022-09-27T00:06:52;0.60;;;0.60;;
27495;SDS011;14929;51.336;9.416;2022-09-27T00:09:20;0.90;;;0.90;;
27495;SDS011;14929;51.336;9.416;2022-09-27T00:11:48;0.75;;;0.75;;
27495;SDS011;14929;51.336;9.416;2022-09-27T00:14:16;0.73;;;0.73;;
27495;SDS011;14929;51.336;9.416;2022-09-27T00:16:45;0.80;;;0.80;;
27495;SDS011;14929;51.336;9.416;2022-09-27T00:19:13;0.60;;;0.60;;
27495;SDS011;14929;51.336;9.416;2022-09-27T00:21:44;0.60;;;0.60;;
27495;SDS011;14929;51.336;9.416;2022-09-27T00:24:13;0.50;;;0.50;;
27495;SDS011;14929;51.336;9.416;2022-09-27T00:26:42;0.65;;;0.65;;
27495;SDS011;14929;51.336;9.416;2022-09-27T00:29:11;0.50;;;0.50;;
27495;SDS011;14929;51.336;9.416;2022-09-27T00:31:39;0.70;;;0.70;;
27495;SDS011;14929;51.336;9.416;2022-09-27T00:34:09;0.60;;;0.60;;
27495;SDS011;14929;51.336;9.416;2022-09-27T00:36:49;0.50;;;0.50;;
27495;SDS011;14929;51.336;9.416;2022-09-27T00:39:17;0.57;;;0.45;;
27495;SDS011;14929;51.336;9.416;2022-09-27T00:41:45;0.52;;;0.52;;
27495;SDS011;14929;51.336;9.416;2022-09-27T00:47:26;0.52;;;0.52;;
27495;SDS011;14929;51.336;9.416;2022-09-27T00:50:04;0.50;;;0.50;;
27495;SDS011;14929;51.336;9.416;2022-09-27T00:56:20;0.30;;;0.30;;
27495;SDS011;14929;51.336;9.416;2022-09-27T00:58:52;0.50;;;0.50;;
27495;SDS011;14929;51.336;9.416;2022-09-27T01:01:23;0.40;;;0.40;;
27495;SDS011;14929;51.336;9.416;2022-09-27T01:03:51;0.40;;;0.40;;
27495;SDS011;14929;51.336;9.416;2022-09-27T01:06:23;0.60;;;0.60;;
27495;SDS011;14929;51.336;9.416;2022-09-27T01:08:51;0.30;;;0.30;;
27495;SDS011;14929;51.336;9.416;2022-09-27T01:11:27;0.40;;;0.40;;
27495;SDS011;14929;51.336;9.416;2022-09-27T01:14:09;0.40;;;0.40;;
27495;SDS011;14929;51.336;9.416;2022-09-27T01:17:03;0.43;;;0.43;;
27495;SDS011;14929;51.336;9.416;2022-09-27T01:20:00;0.57;;;0.50;;
27495;SDS011;14929;51.336;9.416;2022-09-27T01:22:51;0.30;;;0.30;;
27495;SDS011;14929;51.336;9.416;2022-09-27T01:25:39;0.40;;;0.40;;
27495;SDS011;14929;51.336;9.416;2022-09-27T01:28:19;1.38;;;0.50;;
27495;SDS011;14929;51.336;9.416;2022-09-27T01:30:54;0.70;;;0.70;;
27495;SDS011;14929;51.336;9.416;2022-09-27T01:36:14;0.63;;;0.63;;
27495;SDS011;14929;51.336;9.416;2022-09-27T01:38:51;0.50;;;0.50;;
27495;SDS011;14929;51.336;9.416;2022-09-27T01:41:31;0.50;;;0.50;;
27495;SDS011;14929;51.336;9.416;2022-09-27T01:44:03;0.77;;;0.70;;
27495;SDS011;14929;51.336;9.416;2022-09-27T01:46:34;0.80;;;0.80;;
27495;SDS011;14929;51.336;9.416;2022-09-27T01:49:07;0.70;;;0.70;;
27495;SDS011;14929;51.336;9.416;2022-09-27T01:51:41;0.63;;;0.63;;
27495;SDS011;14929;51.336;9.416;2022-09-27T01:54:14;0.80;;;0.80;;
27495;SDS011;14929;51.336;9.416;2022-09-27T01:56:46;1.02;;;0.70;;
27495;SDS011;14929;51.336;9.416;2022-09-27T01:59:17;0.77;;;0.63;;
27495;SDS011;14929;51.336;9.416;2022-09-27T02:01:51;0.70;;;0.70;;
27495;SDS011;14929;51.336;9.416;2022-09-27T02:04:20;0.80;;;0.80;;
27495;SDS011;14929;51.336;9.416;2022-09-27T02:06:51;0.80;;;0.80;;
27495;SDS011;14929;51.336;9.416;2022-09-27T02:09:24;0.70;;;0.70;;
27495;SDS011;14929;51.336;9.416;2022-09-27T02:11:57;1.48;;;1.05;;
27495;SDS011;14929;51.336;9.416;2022-09-27T02:14:29;0.98;;;0.77;;
27495;SDS011;14929;51.336;9.416;2022-09-27T02:17:04;0.90;;;0.90;;
27495;SDS011;14929;51.336;9.416;2022-09-27T02:19:37;0.90;;;0.90;;
27495;SDS011;14929;51.336;9.416;2022-09-27T02:22:14;2.15;;;1.55;;
27495;SDS011;14929;51.336;9.416;2022-09-27T02:24:45;0.90;;;0.90;;
27495;SDS011;14929;51.336;9.416;2022-09-27T02:27:20;0.93;;;0.90;;
27495;SDS011;14929;51.336;9.416;2022-09-27T02:29:52;1.35;;;0.98;;
27495;SDS011;14929;51.336;9.416;2022-09-27T02:32:27;1.15;;;1.10;;
27495;SDS011;14929;51.336;9.416;2022-09-27T02:34:55;1.20;;;1.10;;
27495;SDS011;14929;51.336;9.416;2022-09-27T02:37:24;2.53;;;1.08;;
27495;SDS011;14929;51.336;9.416;2022-09-27T02:39:52;0.77;;;0.77;;
27495;SDS011;14929;51.336;9.416;2022-09-27T02:42:20;1.15;;;1.05;;
27495;SDS011;14929;51.336;9.416;2022-09-27T02:44:47;0.70;;;0.70;;
27495;SDS011;14929;51.336;9.416;2022-09-27T02:47:22;0.73;;;0.73;;
27495;SDS011;14929;51.336;9.416;2022-09-27T02:50:13;0.80;;;0.80;;
27495;SDS011;14929;51.336;9.416;2022-09-27T02:53:02;0.90;;;0.90;;
27495;SDS011;14929;51.336;9.416;2022-09-27T02:55:37;0.95;;;0.95;;
27495;SDS011;14929;51.336;9.416;2022-09-27T02:58:21;2.58;;;1.10;;
27495;SDS011;14929;51.336;9.416;2022-09-27T03:00:56;0.85;;;0.85;;
27495;SDS011;14929;51.336;9.416;2022-09-27T03:03:32;1.05;;;1.05;;
27495;SDS011;14929;51.336;9.416;2022-09-27T03:06:05;0.80;;;0.80;;
27495;SDS011;14929;51.336;9.416;2022-09-27T03:08:35;0.85;;;0.85;;
27495;SDS011;14929;51.336;9.416;2022-09-27T03:11:03;0.70;;;0.70;;
27495;SDS011;14929;51.336;9.416;2022-09-27T03:13:31;1.05;;;1.00;;
27495;SDS011;14929;51.336;9.416;2022-09-27T03:16:00;1.23;;;1.13;;
27495;SDS011;14929;51.336;9.416;2022-09-27T03:18:28;0.90;;;0.90;;
27495;SDS011;14929;51.336;9.416;2022-09-27T03:20:57;0.90;;;0.90;;
27495;SDS011;14929;51.336;9.416;2022-09-27T03:23:25;1.85;;;0.90;;
27495;SDS011;14929;51.336;9.416;2022-09-27T03:25:52;0.88;;;0.70;;
27495;SDS011;14929;51.336;9.416;2022-09-27T03:28:20;0.93;;;0.90;;
27495;SDS011;14929;51.336;9.416;2022-09-27T03:30:49;0.77;;;0.77;;
27495;SDS011;14929;51.336;9.416;2022-09-27T03:33:16;1.02;;;1.00;;
27495;SDS011;14929;51.336;9.416;2022-09-27T03:35:44;0.80;;;0.80;;
27495;SDS011;14929;51.336;9.416;2022-09-27T03:38:13;0.93;;;0.60;;
27495;SDS011;14929;51.336;9.416;2022-09-27T03:40:41;0.93;;;0.93;;
27495;SDS011;14929;51.336;9.416;2022-09-27T03:43:09;0.80;;;0.80;;
27495;SDS011;14929;51.336;9.416;2022-09-27T03:45:36;1.65;;;0.90;;
27495;SDS011;14929;51.336;9.416;2022-09-27T03:48:04;3.13;;;0.85;;
27495;SDS011;14929;51.336;9.416;2022-09-27T03:50:32;0.75;;;0.70;;
27495;SDS011;14929;51.336;9.416;2022-09-27T03:53:00;0.95;;;0.80;;
27495;SDS011;14929;51.336;9.416;2022-09-27T03:55:29;1.00;;;0.90;;
27495;SDS011;14929;51.336;9.416;2022-09-27T03:57:57;0.80;;;0.80;;
27495;SDS011;14929;51.336;9.416;2022-09-27T04:00:24;5.20;;;0.68;;
27495;SDS011;14929;51.336;9.416;2022-09-27T04:02:52;0.82;;;0.80;;
27495;SDS011;14929;51.336;9.416;2022-09-27T04:05:20;0.70;;;0.63;;
27495;SDS011;14929;51.336;9.416;2022-09-27T04:07:48;0.70;;;0.70;;
27495;SDS011;14929;51.336;9.416;2022-09-27T04:10:16;0.60;;;0.60;;
27495;SDS011;14929;51.336;9.416;2022-09-27T04:12:45;0.80;;;0.80;;
27495;SDS011;14929;51.336;9.416;2022-09-27T04:15:12;0.60;;;0.60;;
27495;SDS011;14929;51.336;9.416;2022-09-27T04:17:40;0.40;;;0.40;;
27495;SDS011;14929;51.336;9.416;2022-09-27T04:20:08;0.65;;;0.52;;
27495;SDS011;14929;51.336;9.416;2022-09-27T04:22:37;0.50;;;0.50;;
27495;SDS011;14929;51.336;9.416;2022-09-27T04:25:08;0.43;;;0.40;;
27495;SDS011;14929;51.336;9.416;2022-09-27T04:27:36;0.52;;;0.52;;
27495;SDS011;14929;51.336;9.416;2022-09-27T04:30:06;0.85;;;0.55;;
27495;SDS011;14929;51.336;9.416;2022-09-27T04:32:39;0.80;;;0.70;;
27495;SDS011;14929;51.336;9.416;2022-09-27T04:35:07;0.70;;;0.52;;
27495;SDS011;14929;51.336;9.416;2022-09-27T04:37:53;0.45;;;0.45;;
27495;SDS011;14929;51.336;9.416;2022-09-27T04:40:21;0.93;;;0.93;;
27495;SDS011;14929;51.336;9.416;2022-09-27T04:42:49;0.60;;;0.50;;
27495;SDS011;14929;51.336;9.416;2022-09-27T04:45:18;0.50;;;0.50;;
27495;SDS011;14929;51.336;9.416;2022-09-27T04:47:46;0.50;;;0.50;;
27495;SDS011;14929;51.336;9.416;2022-09-27T04:50:15;0.60;;;0.60;;
27495;SDS011;14929;51.336;9.416;2022-09-27T04:52:48;0.63;;;0.60;;
27495;SDS011;14929;51.336;9.416;2022-09-27T04:55:17;0.98;;;0.90;;
27495;SDS011;14929;51.336;9.416;2022-09-27T04:57:46;0.88;;;0.88;;
27495;SDS011;14929;51.336;9.416;2022-09-27T05:00:14;1.33;;;1.00;;
27495;SDS011;14929;51.336;9.416;2022-09-27T05:02:43;0.90;;;0.60;;
27495;SDS011;14929;51.336;9.416;2022-09-27T05:05:12;0.70;;;0.70;;
27495;SDS011;14929;51.336;9.416;2022-09-27T05:07:40;1.13;;;0.80;;
27495;SDS011;14929;51.336;9.416;2022-09-27T05:10:08;0.82;;;0.82;;
27495;SDS011;14929;51.336;9.416;2022-09-27T05:12:36;0.88;;;0.88;;
27495;SDS011;14929;51.336;9.416;2022-09-27T05:15:04;3.45;;;0.85;;
27495;SDS011;14929;51.336;9.416;2022-09-27T05:17:33;1.17;;;0.80;;
27495;SDS011;14929;51.336;9.416;2022-09-27T05:20:02;0.90;;;0.90;;
27495;SDS011;14929;51.336;9.416;2022-09-27T05:22:31;1.00;;;1.00;;
27495;SDS011;14929;51.336;9.416;2022-09-27T05:24:58;0.88;;;0.70;;
27495;SDS011;14929;51.336;9.416;2022-09-27T05:27:26;0.60;;;0.60;;
27495;SDS011;14929;51.336;9.416;2022-09-27T05:29:55;1.00;;;0.90;;
27495;SDS011;14929;51.336;9.416;2022-09-27T05:32:24;0.75;;;0.75;;
27495;SDS011;14929;51.336;9.416;2022-09-27T05:34:52;0.70;;;0.70;;
27495;SDS011;14929;51.336;9.416;2022-09-27T05:37:21;1.08;;;1.02;;
27495;SDS011;14929;51.336;9.416;2022-09-27T05:39:49;2.90;;;1.40;;
27495;SDS011;14929;51.336;9.416;2022-09-27T05:42:16;1.98;;;0.95;;
27495;SDS011;14929;51.336;9.416;2022-09-27T05:44:45;1.35;;;1.35;;
27495;SDS011;14929;51.336;9.416;2022-09-27T05:47:13;2.88;;;1.60;;
27495;SDS011;14929;51.336;9.416;2022-09-27T05:49:40;1.58;;;1.40;;
27495;SDS011;14929;51.336;9.416;2022-09-27T05:52:08;1.10;;;1.10;;
27495;SDS011;14929;51.336;9.416;2022-09-27T05:54:37;1.65;;;1.55;;
27495;SDS011;14929;51.336;9.416;2022-09-27T05:57:05;1.13;;;1.02;;
27495;SDS011;14929;51.336;9.416;2022-09-27T05:59:32;2.45;;;1.27;;
27495;SDS011;14929;51.336;9.416;2022-09-27T06:02:00;1.98;;;1.30;;
27495;SDS011;14929;51.336;9.416;2022-09-27T06:04:27;2.17;;;1.20;;
27495;SDS011;14929;51.336;9.416;2022-09-27T06:06:55;0.90;;;0.90;;
27495;SDS011;14929;51.336;9.416;2022-09-27T06:09:23;1.10;;;1.10;;
27495;SDS011;14929;51.336;9.416;2022-09-27T06:11:53;1.00;;;0.90;;
27495;SDS011;14929;51.336;9.416;2022-09-27T06:14:21;1.50;;;1.40;;
27495;SDS011;14929;51.336;9.416;2022-09-27T06:16:48;2.10;;;1.20;;
27495;SDS011;14929;51.336;9.416;2022-09-27T06:19:19;1.42;;;1.33;;
27495;SDS011;14929;51.336;9.416;2022-09-27T06:21:48;1.33;;;1.23;;
27495;SDS011;14929;51.336;9.416;2022-09-27T06:24:15;1.00;;;1.00;;
27495;SDS011;14929;51.336;9.416;2022-09-27T06:26:43;0.93;;;0.85;;
27495;SDS011;14929;51.336;9.416;2022-09-27T06:29:12;1.40;;;1.30;;
27495;SDS011;14929;51.336;9.416;2022-09-27T06:31:39;1.00;;;1.00;;
27495;SDS011;14929;51.336;9.416;2022-09-27T06:34:07;0.75;;;0.75;;
27495;SDS011;14929;51.336;9.416;2022-09-27T06:36:35;0.90;;;0.90;;
27495;SDS011;14929;51.336;9.416;2022-09-27T06:39:02;0.88;;;0.88;;
27495;SDS011;14929;51.336;9.416;2022-09-27T06:41:30;1.27;;;1.17;;
27495;SDS011;14929;51.336;9.416;2022-09-27T06:44:00;2.28;;;1.27;;
27495;SDS011;14929;51.336;9.416;2022-09-27T06:46:29;0.98;;;0.98;;
27495;SDS011;14929;51.336;9.416;2022-09-27T06:48:57;1.35;;;1.27;;
27495;SDS011;14929;51.336;9.416;2022-09-27T06:51:24;1.38;;;1.27;;
27495;SDS011;14929;51.336;9.416;2022-09-27T06:53:52;3.22;;;2.25;;
27495;SDS011;14929;51.336;9.416;2022-09-27T06:56:19;2.53;;;2.33;;
27495;SDS011;14929;51.336;9.416;2022-09-27T06:58:47;1.50;;;1.40;;
27495;SDS011;14929;51.336;9.416;2022-09-27T07:01:33;1.63;;;1.52;;
27495;SDS011;14929;51.336;9.416;2022-09-27T07:04:01;1.30;;;1.20;;
27495;SDS011;14929;51.336;9.416;2022-09-27T07:06:30;1.73;;;1.63;;
27495;SDS011;14929;51.336;9.416;2022-09-27T07:08:58;2.30;;;1.33;;
27495;SDS011;14929;51.336;9.416;2022-09-27T07:11:26;1.00;;;1.00;;
27495;SDS011;14929;51.336;9.416;2022-09-27T07:13:54;1.33;;;1.15;;
27495;SDS011;14929;51.336;9.416;2022-09-27T07:16:22;1.13;;;1.10;;
27495;SDS011;14929;51.336;9.416;2022-09-27T07:18:50;5.55;;;2.17;;
27495;SDS011;14929;51.336;9.416;2022-09-27T07:21:18;2.08;;;1.33;;
27495;SDS011;14929;51.336;9.416;2022-09-27T07:23:46;0.95;;;0.95;;
27495;SDS011;14929;51.336;9.416;2022-09-27T07:26:13;1.58;;;1.30;;
27495;SDS011;14929;51.336;9.416;2022-09-27T07:28:41;1.10;;;1.00;;
27495;SDS011;14929;51.336;9.416;2022-09-27T07:31:09;1.67;;;1.38;;
27495;SDS011;14929;51.336;9.416;2022-09-27T07:33:37;2.35;;;1.40;;
27495;SDS011;14929;51.336;9.416;2022-09-27T07:36:07;1.20;;;1.10;;
27495;SDS011;14929;51.336;9.416;2022-09-27T07:38:36;1.15;;;1.15;;
27495;SDS011;14929;51.336;9.416;2022-09-27T07:41:06;1.48;;;1.38;;
27495;SDS011;14929;51.336;9.416;2022-09-27T07:43:35;1.27;;;1.20;;
27495;SDS011;14929;51.336;9.416;2022-09-27T07:46:02;1.65;;;1.27;;
27495;SDS011;14929;51.336;9.416;2022-09-27T07:48:30;2.22;;;1.20;;
27495;SDS011;14929;51.336;9.416;2022-09-27T07:50:58;1.10;;;1.10;;
27495;SDS011;14929;51.336;9.416;2022-09-27T07:53:27;1.33;;;1.20;;
27495;SDS011;14929;51.336;9.416;2022-09-27T07:55:54;1.42;;;1.33;;
27495;SDS011;14929;51.336;9.416;2022-09-27T07:58:23;1.42;;;1.25;;
27495;SDS011;14929;51.336;9.416;2022-09-27T08:00:50;1.73;;;1.20;;
27495;SDS011;14929;51.336;9.416;2022-09-27T08:03:20;1.33;;;1.23;;
27495;SDS011;14929;51.336;9.416;2022-09-27T08:05:47;1.20;;;1.10;;
27495;SDS011;14929;51.336;9.416;2022-09-27T08:08:15;1.17;;;1.08;;
27495;SDS011;14929;51.336;9.416;2022-09-27T08:10:44;1.40;;;1.30;;
27495;SDS011;14929;51.336;9.416;2022-09-27T08:13:12;1.70;;;1.60;;
27495;SDS011;14929;51.336;9.416;2022-09-27T08:15:44;2.63;;;1.52;;
27495;SDS011;14929;51.336;9.416;2022-09-27T08:18:12;3.13;;;1.52;;
27495;SDS011;14929;51.336;9.416;2022-09-27T08:20:40;1.63;;;1.13;;
27495;SDS011;14929;51.336;9.416;2022-09-27T08:23:08;1.42;;;1.33;;
27495;SDS011;14929;51.336;9.416;2022-09-27T08:25:36;2.17;;;1.10;;
27495;SDS011;14929;51.336;9.416;2022-09-27T08:28:05;1.50;;;1.40;;
27495;SDS011;14929;51.336;9.416;2022-09-27T08:30:34;1.88;;;1.52;;
27495;SDS011;14929;51.336;9.416;2022-09-27T08:33:02;3.17;;;2.05;;
27495;SDS011;14929;51.336;9.416;2022-09-27T08:35:30;1.50;;;1.40;;
27495;SDS011;14929;51.336;9.416;2022-09-27T08:37:59;1.52;;;1.42;;
27495;SDS011;14929;51.336;9.416;2022-09-27T08:40:31;2.22;;;2.05;;
27495;SDS011;14929;51.336;9.416;2022-09-27T08:43:11;7.85;;;2.42;;
27495;SDS011;14929;51.336;9.416;2022-09-27T08:45:51;1.60;;;1.50;;
27495;SDS011;14929;51.336;9.416;2022-09-27T08:48:28;2.03;;;1.85;;
27495;SDS011;14929;51.336;9.416;2022-09-27T08:50:56;3.05;;;1.98;;
27495;SDS011;14929;51.336;9.416;2022-09-27T08:53:25;1.73;;;1.63;;
27495;SDS011;14929;51.336;9.416;2022-09-27T08:55:56;2.13;;;1.85;;
27495;SDS011;14929;51.336;9.416;2022-09-27T08:58:29;2.15;;;1.92;;
27495;SDS011;14929;51.336;9.416;2022-09-27T09:01:00;2.95;;;2.08;;
27495;SDS011;14929;51.336;9.416;2022-09-27T09:03:31;2.83;;;2.10;;
27495;SDS011;14929;51.336;9.416;2022-09-27T09:06:06;2.63;;;1.90;;
27495;SDS011;14929;51.336;9.416;2022-09-27T09:08:38;1.40;;;1.30;;
27495;SDS011;14929;51.336;9.416;2022-09-27T09:11:27;2.22;;;1.63;;
27495;SDS011;14929;51.336;9.416;2022-09-27T09:17:42;4.00;;;1.90;;
27495;SDS011;14929;51.336;9.416;2022-09-27T09:20:26;4.78;;;2.30;;
27495;SDS011;14929;51.336;9.416;2022-09-27T09:23:20;2.75;;;2.50;;
27495;SDS011;14929;51.336;9.416;2022-09-27T09:26:11;2.60;;;2.08;;
27495;SDS011;14929;51.336;9.416;2022-09-27T09:28:47;2.33;;;2.05;;
27495;SDS011;14929;51.336;9.416;2022-09-27T09:31:30;3.47;;;2.22;;
27495;SDS011;14929;51.336;9.416;2022-09-27T09:34:04;4.53;;;1.95;;
27495;SDS011;14929;51.336;9.416;2022-09-27T09:36:40;2.17;;;1.83;;
27495;SDS011;14929;51.336;9.416;2022-09-27T09:39:13;3.25;;;1.70;;
27495;SDS011;14929;51.336;9.416;2022-09-27T09:41:46;1.20;;;1.10;;
27495;SDS011;14929;51.336;9.416;2022-09-27T09:44:28;3.70;;;2.63;;
27495;SDS011;14929;51.336;9.416;2022-09-27T09:47:00;2.20;;;1.67;;
27495;SDS011;14929;51.336;9.416;2022-09-27T09:49:29;2.13;;;1.77;;
27495;SDS011;14929;51.336;9.416;2022-09-27T09:52:01;1.98;;;1.60;;
27495;SDS011;14929;51.336;9.416;2022-09-27T09:54:34;1.42;;;1.30;;
27495;SDS011;14929;51.336;9.416;2022-09-27T09:57:07;2.92;;;1.67;;
27495;SDS011;14929;51.336;9.416;2022-09-27T09:59:41;1.73;;;1.63;;
27495;SDS011;14929;51.336;9.416;2022-09-27T10:02:18;1.55;;;1.30;;
27495;SDS011;14929;51.336;9.416;2022-09-27T10:04:53;1.60;;;1.50;;
27495;SDS011;14929;51.336;9.416;2022-09-27T10:07:22;2.03;;;1.60;;
27495;SDS011;14929;51.336;9.416;2022-09-27T10:09:50;3.10;;;1.90;;
27495;SDS011;14929;51.336;9.416;2022-09-27T10:12:19;1.60;;;1.50;;
27495;SDS011;14929;51.336;9.416;2022-09-27T10:14:48;2.97;;;1.65;;
27495;SDS011;14929;51.336;9.416;2022-09-27T10:17:19;2.55;;;1.50;;
27495;SDS011;14929;51.336;9.416;2022-09-27T10:19:48;1.67;;;1.58;;
27495;SDS011;14929;51.336;9.416;2022-09-27T10:22:21;2.53;;;1.90;;
27495;SDS011;14929;51.336;9.416;2022-09-27T10:24:53;1.75;;;1.65;;
27495;SDS011;14929;51.336;9.416;2022-09-27T10:27:23;0.98;;;0.98;;
27495;SDS011;14929;51.336;9.416;2022-09-27T10:29:55;0.88;;;0.88;;
27495;SDS011;14929;51.336;9.416;2022-09-27T10:32:25;1.92;;;1.10;;
27495;SDS011;14929;51.336;9.416;2022-09-27T10:37:47;0.98;;;0.98;;
27495;SDS011;14929;51.336;9.416;2022-09-27T10:40:15;1.77;;;1.40;;
27495;SDS011;14929;51.336;9.416;2022-09-27T10:42:57;2.45;;;1.30;;
27495;SDS011;14929;51.336;9.416;2022-09-27T10:45:27;1.27;;;1.17;;
27495;SDS011;14929;51.336;9.416;2022-09-27T10:47:58;1.65;;;1.50;;
27495;SDS011;14929;51.336;9.416;2022-09-27T10:50:27;1.45;;;1.02;;
27495;SDS011;14929;51.336;9.416;2022-09-27T10:53:01;2.17;;;1.30;;
27495;SDS011;14929;51.336;9.416;2022-09-27T10:55:31;1.33;;;1.23;;
27495;SDS011;14929;51.336;9.416;2022-09-27T10:58:01;2.88;;;1.35;;
27495;SDS011;14929;51.336;9.416;2022-09-27T11:00:29;1.02;;;0.90;;
27495;SDS011;14929;51.336;9.416;2022-09-27T11:03:01;1.98;;;1.27;;
27495;SDS011;14929;51.336;9.416;2022-09-27T11:05:32;1.00;;;1.00;;
27495;SDS011;14929;51.336;9.416;2022-09-27T11:08:18;1.05;;;1.05;;
27495;SDS011;14929;51.336;9.416;2022-09-27T11:10:59;2.72;;;1.00;;
27495;SDS011;14929;51.336;9.416;2022-09-27T11:13:31;1.88;;;1.33;;
27495;SDS011;14929;51.336;9.416;2022-09-27T11:16:05;1.33;;;1.23;;
27495;SDS011;14929;51.336;9.416;2022-09-27T11:18:49;1.08;;;0.95;;
27495;SDS011;14929;51.336;9.416;2022-09-27T11:21:26;1.40;;;0.98;;
27495;SDS011;14929;51.336;9.416;2022-09-27T11:24:08;0.90;;;0.90;;
27495;SDS011;14929;51.336;9.416;2022-09-27T11:27:04;0.70;;;0.70;;
27495;SDS011;14929;51.336;9.416;2022-09-27T11:29:44;1.58;;;1.15;;
27495;SDS011;14929;51.336;9.416;2022-09-27T11:32:27;2.25;;;1.60;;
27495;SDS011;14929;51.336;9.416;2022-09-27T11:35:21;3.00;;;1.10;;
27495;SDS011;14929;51.336;9.416;2022-09-27T11:38:09;0.80;;;0.80;;
27495;SDS011;14929;51.336;9.416;2022-09-27T11:43:54;1.00;;;1.00;;
27495;SDS011;14929;51.336;9.416;2022-09-27T11:46:46;0.63;;;0.63;;
27495;SDS011;14929;51.336;9.416;2022-09-27T11:49:28;0.70;;;0.70;;
27495;SDS011;14929;51.336;9.416;2022-09-27T11:52:26;0.80;;;0.80;;
27495;SDS011;14929;51.336;9.416;2022-09-27T11:55:13;1.90;;;1.80;;
27495;SDS011;14929;51.336;9.416;2022-09-27T11:57:47;1.50;;;1.45;;
27495;SDS011;14929;51.336;9.416;2022-09-27T12:00:25;2.85;;;2.58;;
27495;SDS011;14929;51.336;9.416;2022-09-27T12:03:10;1.38;;;1.20;;
27495;SDS011;14929;51.336;9.416;2022-09-27T12:06:05;1.02;;;1.02;;
27495;SDS011;14929;51.336;9.416;2022-09-27T12:08:43;1.15;;;1.15;;
27495;SDS011;14929;51.336;9.416;2022-09-27T12:11:20;0.93;;;0.85;;
27495;SDS011;14929;51.336;9.416;2022-09-27T12:13:51;1.10;;;0.93;;
27495;SDS011;14929;51.336;9.416;2022-09-27T12:16:23;0.60;;;0.60;;
27495;SDS011;14929;51.336;9.416;2022-09-27T12:18:52;0.60;;;0.60;;
27495;SDS011;14929;51.336;9.416;2022-09-27T12:21:20;1.30;;;0.93;;
27495;SDS011;14929;51.336;9.416;2022-09-27T12:23:50;1.10;;;1.10;;
27495;SDS011;14929;51.336;9.416;2022-09-27T12:26:22;0.60;;;0.50;;
27495;SDS011;14929;51.336;9.416;2022-09-27T12:28:54;0.88;;;0.88;;
27495;SDS011;14929;51.336;9.416;2022-09-27T12:31:25;0.70;;;0.70;;
27495;SDS011;14929;51.336;9.416;2022-09-27T12:34:01;1.00;;;0.90;;
27495;SDS011;14929;51.336;9.416;2022-09-27T12:36:38;0.50;;;0.50;;
27495;SDS011;14929;51.336;9.416;2022-09-27T12:39:12;0.80;;;0.80;;
27495;SDS011;14929;51.336;9.416;2022-09-27T12:41:47;0.90;;;0.90;;
27495;SDS011;14929;51.336;9.416;2022-09-27T12:44:20;1.00;;;1.00;;
27495;SDS011;14929;51.336;9.416;2022-09-27T12:46:51;0.85;;;0.75;;
27495;SDS011;14929;51.336;9.416;2022-09-27T12:49:27;0.80;;;0.80;;
27495;SDS011;14929;51.336;9.416;2022-09-27T12:52:03;0.70;;;0.70;;
27495;SDS011;14929;51.336;9.416;2022-09-27T12:57:43;0.68;;;0.68;;
27495;SDS011;14929;51.336;9.416;2022-09-27T13:00:18;2.88;;;1.05;;
27495;SDS011;14929;51.336;9.416;2022-09-27T13:03:01;0.80;;;0.80;;
27495;SDS011;14929;51.336;9.416;2022-09-27T13:09:12;1.15;;;1.13;;
27495;SDS011;14929;51.336;9.416;2022-09-27T13:11:55;0.82;;;0.82;;
27495;SDS011;14929;51.336;9.416;2022-09-27T13:14:30;0.75;;;0.75;;
27495;SDS011;14929;51.336;9.416;2022-09-27T13:16:59;0.50;;;0.50;;
27495;SDS011;14929;51.336;9.416;2022-09-27T13:19:37;3.40;;;1.15;;
27495;SDS011;14929;51.336;9.416;2022-09-27T13:22:08;1.20;;;0.70;;
27495;SDS011;14929;51.336;9.416;2022-09-27T13:24:51;0.70;;;0.70;;
27495;SDS011;14929;51.336;9.416;2022-09-27T13:27:37;0.77;;;0.77;;
27495;SDS011;14929;51.336;9.416;2022-09-27T13:36:28;0.88;;;0.70;;
27495;SDS011;14929;51.336;9.416;2022-09-27T13:39:01;0.50;;;0.50;;
27495;SDS011;14929;51.336;9.416;2022-09-27T13:41:53;0.50;;;0.50;;
27495;SDS011;14929;51.336;9.416;2022-09-27T13:44:51;0.50;;;0.50;;
27495;SDS011;14929;51.336;9.416;2022-09-27T13:47:34;0.60;;;0.60;;
27495;SDS011;14929;51.336;9.416;2022-09-27T13:50:12;0.60;;;0.60;;
27495;SDS011;14929;51.336;9.416;2022-09-27T13:52:54;0.60;;;0.60;;
27495;SDS011;14929;51.336;9.416;2022-09-27T13:55:37;0.90;;;0.90;;
27495;SDS011;14929;51.336;9.416;2022-09-27T14:01:17;0.90;;;0.90;;
27495;SDS011;14929;51.336;9.416;2022-09-27T14:03:52;0.80;;;0.80;;
27495;SDS011;14929;51.336;9.416;2022-09-27T14:06:24;0.77;;;0.77;;
27495;SDS011;14929;51.336;9.416;2022-09-27T14:08:55;1.70;;;1.20;;
27495;SDS011;14929;51.336;9.416;2022-09-27T14:11:25;1.40;;;1.30;;
27495;SDS011;14929;51.336;9.416;2022-09-27T14:13:55;1.10;;;1.00;;
27495;SDS011;14929;51.336;9.416;2022-09-27T14:16:24;1.60;;;1.42;;
27495;SDS011;14929;51.336;9.416;2022-09-27T14:18:58;2.75;;;0.80;;
27495;SDS011;14929;51.336;9.416;2022-09-27T14:21:27;0.88;;;0.88;;
27495;SDS011;14929;51.336;9.416;2022-09-27T14:27:11;0.63;;;0.63;;
27495;SDS011;14929;51.336;9.416;2022-09-27T14:29:42;0.70;;;0.70;;
27495;SDS011;14929;51.336;9.416;2022-09-27T14:32:15;0.60;;;0.60;;
27495;SDS011;14929;51.336;9.416;2022-09-27T14:34:45;0.55;;;0.55;;
27495;SDS011;14929;51.336;9.416;2022-09-27T14:37:26;1.00;;;1.00;;
27495;SDS011;14929;51.336;9.416;2022-09-27T14:39:55;0.50;;;0.50;;
27495;SDS011;14929;51.336;9.416;2022-09-27T14:42:24;0.60;;;0.60;;
27495;SDS011;14929;51.336;9.416;2022-09-27T14:44:54;0.70;;;0.70;;
27495;SDS011;14929;51.336;9.416;2022-09-27T14:47:27;1.20;;;0.82;;
27495;SDS011;14929;51.336;9.416;2022-09-27T14:49:56;0.70;;;0.70;;
27495;SDS011;14929;51.336;9.416;2022-09-27T14:52:26;0.70;;;0.70;;
27495;SDS011;14929;51.336;9.416;2022-09-27T14:54:59;0.75;;;0.75;;
27495;SDS011;14929;51.336;9.416;2022-09-27T14:57:29;0.60;;;0.60;;
27495;SDS011;14929;51.336;9.416;2022-09-27T15:00:08;0.70;;;0.70;;
27495;SDS011;14929;51.336;9.416;2022-09-27T15:02:44;0.63;;;0.63;;
27495;SDS011;14929;51.336;9.416;2022-09-27T15:05:12;1.02;;;0.98;;
27495;SDS011;14929;51.336;9.416;2022-09-27T15:07:42;1.20;;;1.20;;
27495;SDS011;14929;51.336;9.416;2022-09-27T15:10:14;0.90;;;0.90;;
27495;SDS011;14929;51.336;9.416;2022-09-27T15:12:43;1.45;;;0.98;;
27495;SDS011;14929;51.336;9.416;2022-09-27T15:15:13;1.40;;;1.02;;
27495;SDS011;14929;51.336;9.416;2022-09-27T15:17:45;0.80;;;0.80;;
27495;SDS011;14929;51.336;9.416;2022-09-27T15:20:20;0.90;;;0.90;;
27495;SDS011;14929;51.336;9.416;2022-09-27T15:22:52;1.05;;;0.80;;
27495;SDS011;14929;51.336;9.416;2022-09-27T15:25:21;0.80;;;0.80;;
27495;SDS011;14929;51.336;9.416;2022-09-27T15:27:56;0.77;;;0.77;;
27495;SDS011;14929;51.336;9.416;2022-09-27T15:30:25;0.80;;;0.80;;
27495;SDS011;14929;51.336;9.416;2022-09-27T15:32:59;0.60;;;0.60;;
27495;SDS011;14929;51.336;9.416;2022-09-27T15:35:28;0.52;;;0.52;;
27495;SDS011;14929;51.336;9.416;2022-09-27T15:41:05;0.70;;;0.70;;
27495;SDS011;14929;51.336;9.416;2022-09-27T15:43:39;0.80;;;0.57;;
27495;SDS011;14929;51.336;9.416;2022-09-27T15:46:26;0.57;;;0.57;;
27495;SDS011;14929;51.336;9.416;2022-09-27T15:51:54;0.68;;;0.50;;
27495;SDS011;14929;51.336;9.416;2022-09-27T15:54:24;1.00;;;1.00;;
27495;SDS011;14929;51.336;9.416;2022-09-27T15:56:54;1.00;;;1.00;;
27495;SDS011;14929;51.336;9.416;2022-09-27T15:59:26;0.80;;;0.80;;
27495;SDS011;14929;51.336;9.416;2022-09-27T16:01:56;1.10;;;1.10;;
27495;SDS011;14929;51.336;9.416;2022-09-27T16:04:26;0.80;;;0.80;;